createdAt,value
2017-11-18T09:59:02.871Z,62.28
2017-11-18T10:01:32.980Z,60.63
2017-11-18T10:04:01.377Z,60.05
2017-11-18T10:06:29.804Z,60.87
2017-11-18T10:08:59.055Z,60.21
2017-11-18T10:11:28.053Z,61.20
2017-11-18T10:13:57.167Z,61.20
2017-11-18T10:16:25.537Z,60.82
2017-11-18T10:21:16.202Z,61.24
2017-11-18T10:23:45.366Z,61.76
2017-11-18T10:26:13.760Z,61.64
2017-11-18T10:28:42.160Z,61.03
2017-11-18T10:31:10.546Z,61.04
2017-11-18T10:33:39.697Z,61.46
2017-11-18T10:36:08.115Z,60.97
2017-11-18T10:38:37.293Z,60.06
2017-11-18T10:41:05.777Z,59.96
2017-11-18T10:43:34.324Z,60.33
2017-11-18T10:46:02.707Z,61.48
2017-11-18T10:48:31.094Z,60.99
2017-11-18T10:51:00.319Z,61.37
2017-11-18T10:53:28.761Z,60.53
2017-11-18T10:55:57.133Z,59.54
2017-11-18T10:58:25.563Z,60.70
2017-11-18T11:00:54.221Z,61.70
2017-11-18T11:03:22.990Z,62.87
2017-11-18T11:05:51.634Z,62.98
2017-11-18T11:08:20.815Z,63.13
2017-11-18T11:10:49.204Z,63.42
2017-11-18T11:13:17.635Z,62.47
2017-11-18T11:15:46.045Z,62.06
2017-11-18T11:18:14.428Z,62.94
2017-11-18T11:20:43.633Z,63.22
2017-11-18T11:23:12.005Z,62.97
2017-11-18T11:25:40.389Z,63.06
2017-11-18T11:28:08.884Z,61.87
2017-11-18T11:30:37.302Z,62.98
2017-11-18T11:33:05.675Z,64.59
2017-11-18T11:35:34.101Z,66.35
2017-11-18T11:38:02.483Z,68.31
2017-11-18T11:40:30.893Z,69.16
2017-11-18T11:42:59.306Z,71.76
2017-11-18T11:45:28.610Z,70.99
2017-11-18T11:47:56.969Z,73.39
2017-11-18T11:50:25.592Z,72.58
2017-11-18T11:52:53.962Z,73.68
2017-11-18T11:55:23.127Z,73.83
2017-11-18T11:57:52.301Z,74.40
2017-11-18T12:00:20.688Z,74.70
2017-11-18T12:02:49.074Z,73.93
2017-11-18T12:05:18.197Z,74.00
2017-11-18T12:07:46.641Z,74.93
2017-11-18T12:10:15.028Z,73.88
2017-11-18T12:12:43.633Z,74.30
2017-11-18T12:15:12.034Z,73.87
2017-11-18T12:17:41.194Z,74.16
2017-11-18T12:20:09.668Z,74.59
2017-11-18T12:22:38.057Z,74.69
2017-11-18T12:25:07.214Z,74.20
2017-11-18T12:27:35.626Z,75.79
2017-11-18T12:30:04.031Z,74.67
2017-11-18T12:32:32.429Z,75.12
2017-11-18T12:35:00.973Z,73.80
2017-11-18T12:40:02.451Z,75.22
2017-11-18T12:42:31.411Z,75.25
2017-11-18T12:44:59.797Z,75.06
2017-11-18T12:47:28.214Z,74.17
2017-11-18T12:49:56.585Z,74.57
2017-11-18T12:52:25.735Z,73.21
2017-11-18T12:54:54.217Z,72.60
2017-11-18T12:57:23.527Z,72.94
2017-11-18T12:59:51.905Z,71.90
2017-11-18T13:02:20.458Z,72.07
2017-11-18T13:04:48.842Z,71.59
2017-11-18T13:07:17.236Z,72.17
2017-11-18T13:09:45.673Z,72.41
2017-11-18T13:12:14.059Z,72.46
2017-11-18T13:14:42.477Z,72.50
2017-11-18T13:17:12.147Z,72.11
2017-11-18T13:19:40.542Z,72.78
2017-11-18T13:22:08.939Z,74.55
2017-11-18T13:24:38.157Z,74.97
2017-11-18T13:27:06.548Z,74.68
2017-11-18T13:29:34.958Z,75.85
2017-11-18T13:32:04.152Z,74.89
2017-11-18T13:34:33.324Z,75.27
2017-11-18T13:37:01.704Z,75.88
2017-11-18T13:39:30.182Z,76.78
2017-11-18T13:41:58.573Z,76.06
2017-11-18T13:44:26.942Z,76.48
2017-11-18T13:46:55.379Z,77.52
2017-11-18T13:49:23.893Z,77.18
2017-11-18T13:51:52.276Z,76.95
2017-11-18T13:54:20.686Z,78.01
2017-11-18T13:56:49.857Z,78.20
2017-11-18T13:59:18.241Z,78.25
2017-11-18T14:01:46.938Z,78.02
2017-11-18T14:04:16.069Z,78.60
2017-11-18T14:06:44.476Z,78.23
2017-11-18T14:09:12.898Z,77.85
2017-11-18T14:11:41.293Z,77.29
2017-11-18T14:14:10.463Z,77.25
2017-11-18T14:16:38.897Z,76.85
2017-11-18T14:19:07.279Z,76.32
2017-11-18T14:21:35.667Z,76.48
2017-11-18T14:24:04.453Z,76.03
2017-11-18T14:26:32.850Z,75.75
2017-11-18T14:29:01.252Z,75.48
2017-11-18T14:31:29.681Z,74.83
2017-11-18T14:33:58.069Z,75.38
2017-11-18T14:36:26.461Z,74.90
2017-11-18T14:38:55.789Z,74.84
2017-11-18T14:41:24.190Z,74.36
2017-11-18T14:43:52.578Z,74.19
2017-11-18T14:46:21.915Z,74.69
2017-11-18T14:48:50.333Z,74.91
2017-11-18T14:51:18.726Z,75.29
2017-11-18T14:53:47.902Z,74.80
2017-11-18T14:56:16.325Z,74.72
2017-11-18T14:58:44.728Z,75.01
2017-11-18T15:01:13.573Z,75.50
2017-11-18T15:03:42.189Z,76.09
2017-11-18T15:06:10.604Z,75.74
2017-11-18T15:08:39.216Z,75.70
2017-11-18T15:11:07.818Z,75.76
2017-11-18T15:13:37.008Z,76.27
2017-11-18T15:16:05.714Z,76.14
2017-11-18T15:18:40.454Z,76.17
2017-11-18T15:21:15.229Z,75.81
2017-11-18T15:26:57.772Z,77.37
2017-11-18T15:29:29.575Z,77.43
2017-11-18T15:31:57.997Z,77.48
2017-11-18T15:34:30.245Z,77.59
2017-11-18T15:37:04.905Z,78.18
2017-11-18T15:39:33.816Z,77.75
2017-11-18T15:42:02.233Z,76.72
2017-11-18T15:47:44.683Z,77.36
2017-11-18T15:50:13.888Z,77.29
2017-11-18T15:55:53.480Z,77.31
2017-11-18T15:58:24.097Z,77.02
2017-11-18T16:00:58.688Z,76.67
2017-11-18T16:03:27.085Z,76.94
2017-11-18T16:05:56.255Z,76.41
2017-11-18T16:08:25.704Z,76.03
2017-11-18T16:10:54.114Z,75.34
2017-11-18T16:13:23.087Z,75.39
2017-11-18T16:15:51.556Z,75.82
2017-11-18T16:18:19.984Z,76.30
2017-11-18T16:20:49.535Z,76.59
2017-11-18T16:23:18.216Z,76.87
2017-11-18T16:25:46.984Z,78.12
2017-11-18T16:28:15.423Z,77.99
2017-11-18T16:30:44.489Z,78.24
2017-11-18T16:33:12.891Z,77.99
2017-11-18T16:35:41.266Z,77.62
2017-11-18T16:38:09.668Z,77.55
2017-11-18T16:40:38.054Z,78.00
2017-11-18T16:43:07.217Z,78.39
2017-11-18T16:45:35.758Z,78.54
2017-11-18T16:48:04.143Z,78.43
2017-11-18T16:50:32.545Z,77.91
2017-11-18T16:53:00.957Z,78.89
2017-11-18T16:55:29.383Z,78.59
2017-11-18T16:57:57.772Z,78.87
2017-11-18T17:00:27.462Z,79.41
2017-11-18T17:02:55.983Z,78.90
2017-11-18T17:05:24.382Z,78.99
2017-11-18T17:07:53.894Z,78.40
2017-11-18T17:10:22.295Z,77.93
2017-11-18T17:12:52.444Z,77.27
2017-11-18T17:15:20.886Z,77.53
2017-11-18T17:17:50.045Z,77.96
2017-11-18T17:20:18.447Z,78.43
2017-11-18T17:22:47.198Z,78.03
2017-11-18T17:25:15.585Z,78.52
2017-11-18T17:27:43.959Z,78.77
2017-11-18T17:30:13.284Z,79.71
2017-11-18T17:32:41.688Z,79.88
2017-11-18T17:35:10.086Z,80.32
2017-11-18T17:37:38.555Z,79.24
2017-11-18T17:40:07.696Z,79.37
2017-11-18T17:42:36.090Z,79.95
2017-11-18T17:45:04.510Z,80.55
2017-11-18T17:47:33.681Z,79.98
2017-11-18T17:50:02.891Z,78.96
2017-11-18T17:52:31.465Z,79.33
2017-11-18T17:54:59.857Z,79.56
2017-11-18T17:57:28.247Z,79.93
2017-11-18T17:59:56.662Z,79.79
2017-11-18T18:02:25.227Z,79.46
2017-11-18T18:04:53.609Z,80.08
2017-11-18T18:07:22.034Z,79.88
2017-11-18T18:09:50.409Z,80.61
2017-11-18T18:12:18.845Z,80.23
2017-11-18T18:14:48.094Z,79.50
2017-11-18T18:17:16.491Z,79.25
2017-11-18T18:19:44.908Z,78.92
2017-11-18T18:22:15.041Z,78.87
2017-11-18T18:24:43.435Z,79.21
2017-11-18T18:27:11.824Z,79.48
2017-11-18T18:29:40.252Z,79.40
2017-11-18T18:32:09.424Z,80.05
2017-11-18T18:34:37.838Z,80.47
2017-11-18T18:37:07.258Z,80.17
2017-11-18T18:39:35.638Z,79.57
2017-11-18T18:42:04.841Z,79.64
2017-11-18T18:44:33.793Z,80.00
2017-11-18T18:47:02.206Z,79.15
2017-11-18T18:49:30.710Z,78.54
2017-11-18T18:51:59.199Z,77.98
2017-11-18T18:54:27.583Z,77.99
2017-11-18T18:56:56.673Z,79.50
2017-11-18T18:59:26.126Z,79.25
2017-11-18T19:01:54.523Z,80.34
2017-11-18T19:04:22.921Z,80.08
2017-11-18T19:06:51.365Z,80.17
2017-11-18T19:09:20.407Z,79.66
2017-11-18T19:11:48.793Z,80.55
2017-11-18T19:14:18.309Z,80.45
2017-11-18T19:16:46.690Z,80.05
2017-11-18T19:19:15.355Z,80.12
2017-11-18T19:21:44.029Z,79.38
2017-11-18T19:24:12.421Z,79.01
2017-11-18T19:26:41.606Z,78.71
2017-11-18T19:29:10.052Z,78.11
2017-11-18T19:31:38.457Z,78.76
2017-11-18T19:34:06.844Z,78.82
2017-11-18T19:36:35.299Z,79.42
2017-11-18T19:39:03.692Z,79.35
2017-11-18T19:41:32.968Z,79.44
2017-11-18T19:44:01.751Z,79.75
2017-11-18T19:46:30.361Z,79.64
2017-11-18T19:48:59.524Z,79.13
2017-11-18T19:51:28.672Z,78.63
2017-11-18T19:53:57.073Z,78.61
2017-11-18T19:56:25.509Z,78.17
2017-11-18T19:58:54.421Z,77.83
2017-11-18T20:01:23.590Z,78.39
2017-11-18T20:03:52.203Z,78.10
2017-11-18T20:06:21.658Z,78.05
2017-11-18T20:08:50.062Z,78.61
2017-11-18T20:11:18.493Z,78.57
2017-11-18T20:13:46.943Z,78.76
2017-11-18T20:16:16.112Z,79.01
2017-11-18T20:18:45.402Z,78.89
2017-11-18T20:21:14.656Z,78.65
2017-11-18T20:23:43.089Z,78.54
2017-11-18T20:26:12.270Z,78.30
2017-11-18T20:28:40.743Z,78.16
2017-11-18T20:31:09.984Z,78.15
2017-11-18T20:33:39.165Z,77.85
2017-11-18T20:36:07.584Z,77.71
2017-11-18T20:38:35.978Z,78.14
2017-11-18T20:41:04.385Z,77.94
2017-11-18T20:43:32.827Z,77.97
2017-11-18T20:46:02.002Z,78.00
2017-11-18T20:48:30.681Z,77.93
2017-11-18T20:50:59.165Z,77.52
2017-11-18T20:53:27.591Z,77.33
2017-11-18T20:55:56.032Z,77.86
2017-11-18T20:58:25.247Z,78.52
2017-11-18T21:00:54.453Z,78.59
2017-11-18T21:03:22.884Z,78.56
2017-11-18T21:05:51.323Z,78.41
2017-11-18T21:08:19.728Z,79.17
2017-11-18T21:10:48.182Z,79.07
2017-11-18T21:13:16.855Z,79.74
2017-11-18T21:15:46.006Z,79.46
2017-11-18T21:18:14.420Z,79.42
2017-11-18T21:20:42.850Z,79.00
2017-11-18T21:23:11.302Z,79.02
2017-11-18T21:25:40.429Z,78.85
2017-11-18T21:28:08.882Z,79.27
2017-11-18T21:30:38.210Z,79.33
2017-11-18T21:33:06.620Z,79.27
2017-11-18T21:35:35.096Z,79.00
2017-11-18T21:38:03.511Z,79.46
2017-11-18T21:40:33.612Z,79.38
2017-11-18T21:43:02.127Z,79.95
2017-11-18T21:45:30.560Z,79.76
2017-11-18T21:47:58.967Z,80.30
2017-11-18T21:50:27.404Z,80.54
2017-11-18T21:52:57.749Z,80.54
2017-11-18T21:55:26.151Z,80.97
2017-11-18T21:57:54.769Z,81.58
2017-11-18T22:00:23.224Z,82.06
2017-11-18T22:02:52.280Z,81.32
2017-11-18T22:05:21.191Z,80.98
2017-11-18T22:07:49.646Z,80.54
2017-11-18T22:10:18.124Z,80.19
2017-11-18T22:12:46.574Z,80.04
2017-11-18T22:15:14.973Z,79.39
2017-11-18T22:17:43.403Z,79.19
2017-11-18T22:20:12.365Z,79.17
2017-11-18T22:22:40.801Z,78.98
2017-11-18T22:25:09.227Z,78.74
2017-11-18T22:27:37.646Z,79.46
2017-11-18T22:30:06.862Z,78.73
2017-11-18T22:32:35.292Z,78.61
2017-11-18T22:35:03.715Z,78.89
2017-11-18T22:37:32.937Z,78.71
2017-11-18T22:40:01.365Z,78.20
2017-11-18T22:42:30.336Z,78.74
2017-11-18T22:44:58.714Z,78.25
2017-11-18T22:47:27.163Z,78.07
2017-11-18T22:49:55.598Z,78.04
2017-11-18T22:52:23.974Z,78.08
2017-11-18T22:54:52.375Z,78.41
2017-11-18T22:57:21.578Z,79.21
2017-11-18T22:59:50.771Z,78.85
2017-11-18T23:02:19.154Z,78.76
2017-11-18T23:04:47.768Z,78.73
2017-11-18T23:07:16.964Z,78.87
2017-11-18T23:09:46.003Z,79.11
2017-11-18T23:12:14.417Z,78.85
2017-11-18T23:14:44.359Z,78.64
2017-11-18T23:17:12.724Z,79.97
2017-11-18T23:19:41.158Z,78.96
2017-11-18T23:22:09.535Z,79.16
2017-11-18T23:24:37.942Z,79.32
2017-11-18T23:27:06.420Z,79.52
2017-11-18T23:29:34.844Z,79.42
2017-11-18T23:32:03.229Z,79.11
2017-11-18T23:34:31.669Z,78.27
2017-11-18T23:37:00.100Z,78.50
2017-11-18T23:39:28.479Z,78.26
2017-11-18T23:41:57.157Z,78.36
2017-11-18T23:44:25.538Z,77.94
2017-11-18T23:46:53.916Z,78.63
2017-11-18T23:49:22.492Z,78.54
2017-11-18T23:51:51.580Z,79.44
2017-11-18T23:54:20.001Z,79.43
2017-11-18T23:56:48.426Z,78.38
2017-11-18T23:59:17.633Z,77.93
